createdAt,value
2022-12-15T00:00:03.466Z,-8.50
2022-12-15T00:01:03.633Z,-8.50
2022-12-15T00:02:03.582Z,-8.60
2022-12-15T00:03:03.693Z,-8.60
2022-12-15T00:04:03.499Z,-8.60
2022-12-15T00:05:03.525Z,-8.60
2022-12-15T00:06:03.522Z,-8.60
2022-12-15T00:07:02.755Z,-8.60
2022-12-15T00:08:02.661Z,-8.60
2022-12-15T00:09:03.615Z,-8.60
2022-12-15T00:10:03.577Z,-8.60
2022-12-15T00:11:03.491Z,-8.70
2022-12-15T00:12:03.595Z,-8.70
2022-12-15T00:13:02.627Z,-8.70
2022-12-15T00:14:02.709Z,-8.70
2022-12-15T00:15:02.765Z,-8.70
2022-12-15T00:16:02.794Z,-8.70
2022-12-15T00:17:02.722Z,-8.70
2022-12-15T00:18:02.932Z,-8.70
2022-12-15T00:19:02.823Z,-8.70
2022-12-15T00:20:02.848Z,-8.70
2022-12-15T00:21:02.933Z,-8.70
2022-12-15T00:22:02.888Z,-8.70
2022-12-15T00:23:02.892Z,-8.80
2022-12-15T00:24:03.051Z,-8.80
2022-12-15T00:25:02.936Z,-8.80
2022-12-15T00:26:02.972Z,-8.80
2022-12-15T00:28:03.323Z,-8.80
2022-12-15T00:29:03.367Z,-8.80
2022-12-15T00:30:03.290Z,-8.80
2022-12-15T00:31:03.280Z,-8.80
2022-12-15T00:32:03.431Z,-8.80
2022-12-15T00:33:03.343Z,-8.90
2022-12-15T00:34:03.428Z,-8.90
2022-12-15T00:35:02.688Z,-8.90
2022-12-15T00:36:03.565Z,-8.90
2022-12-15T00:37:03.571Z,-8.90
2022-12-15T00:38:03.584Z,-8.90
2022-12-15T00:39:03.859Z,-8.90
2022-12-15T00:40:03.501Z,-8.90
2022-12-15T00:41:02.783Z,-8.90
2022-12-15T00:42:02.612Z,-8.90
2022-12-15T00:43:02.685Z,-8.90
2022-12-15T00:44:02.725Z,-8.90
2022-12-15T00:45:02.741Z,-8.90
2022-12-15T00:46:02.817Z,-8.90
2022-12-15T00:47:02.924Z,-9.00
2022-12-15T00:48:02.880Z,-8.90
2022-12-15T00:49:02.924Z,-8.90
2022-12-15T00:50:02.838Z,-8.90
2022-12-15T00:51:02.890Z,-8.90
2022-12-15T00:52:02.835Z,-8.90
2022-12-15T00:53:02.777Z,-8.90
2022-12-15T00:54:02.617Z,-8.90
2022-12-15T00:55:03.738Z,-8.90
2022-12-15T00:56:02.699Z,-8.90
2022-12-15T00:57:02.577Z,-8.90
2022-12-15T00:58:03.686Z,-8.90
2022-12-15T00:59:02.585Z,-8.90
2022-12-15T01:00:03.601Z,-8.90
2022-12-15T01:01:03.606Z,-8.90
2022-12-15T01:02:02.857Z,-8.90
2022-12-15T01:03:02.689Z,-8.90
2022-12-15T01:04:03.626Z,-8.90
2022-12-15T01:05:03.549Z,-8.90
2022-12-15T01:06:03.454Z,-8.90
2022-12-15T01:07:03.662Z,-8.90
2022-12-15T01:08:03.464Z,-8.90
2022-12-15T01:09:03.498Z,-8.90
2022-12-15T01:10:04.011Z,-8.90
2022-12-15T01:11:02.766Z,-8.90
2022-12-15T01:12:02.671Z,-8.90
2022-12-15T01:13:02.831Z,-8.90
2022-12-15T01:14:02.839Z,-9.00
2022-12-15T01:15:02.896Z,-9.00
2022-12-15T01:16:02.957Z,-9.00
2022-12-15T01:17:02.867Z,-9.00
2022-12-15T01:18:02.717Z,-9.00
2022-12-15T01:19:02.936Z,-9.00
2022-12-15T01:20:02.827Z,-9.00
2022-12-15T01:21:02.852Z,-9.00
2022-12-15T01:22:02.948Z,-9.00
2022-12-15T01:23:02.787Z,-9.00
2022-12-15T01:24:02.890Z,-9.00
2022-12-15T01:25:03.621Z,-9.00
2022-12-15T01:26:03.377Z,-9.00
2022-12-15T01:27:03.347Z,-9.00
2022-12-15T01:28:03.423Z,-9.00
2022-12-15T01:29:03.332Z,-9.00
2022-12-15T01:30:03.386Z,-9.00
2022-12-15T01:31:03.499Z,-9.00
2022-12-15T01:32:03.466Z,-9.00
2022-12-15T01:33:03.447Z,-9.00
2022-12-15T01:34:03.463Z,-9.00
2022-12-15T01:35:03.385Z,-9.00
2022-12-15T01:36:03.469Z,-9.00
2022-12-15T01:37:03.756Z,-9.00
2022-12-15T01:38:02.656Z,-8.90
2022-12-15T01:39:02.754Z,-8.90
2022-12-15T01:40:02.782Z,-8.90
2022-12-15T01:41:02.712Z,-8.90
2022-12-15T01:42:02.755Z,-8.90
2022-12-15T01:43:02.832Z,-8.90
2022-12-15T01:44:02.931Z,-8.90
2022-12-15T01:45:02.894Z,-8.90
2022-12-15T01:46:03.025Z,-8.90
2022-12-15T01:47:03.099Z,-8.90
2022-12-15T01:48:02.879Z,-8.90
2022-12-15T01:49:02.956Z,-8.90
2022-12-15T01:50:03.125Z,-8.90
2022-12-15T01:51:03.018Z,-8.90
2022-12-15T01:52:03.095Z,-8.90
2022-12-15T01:53:03.113Z,-8.90
2022-12-15T01:54:03.064Z,-8.90
2022-12-15T01:55:03.336Z,-8.90
2022-12-15T01:56:02.724Z,-8.90
2022-12-15T01:57:02.996Z,-8.90
2022-12-15T01:58:03.021Z,-8.90
2022-12-15T01:59:02.876Z,-8.90
2022-12-15T02:00:02.718Z,-8.90
2022-12-15T02:01:03.033Z,-8.90
2022-12-15T02:02:02.950Z,-8.90
2022-12-15T02:03:02.916Z,-8.90
2022-12-15T02:04:02.929Z,-8.90
2022-12-15T02:05:02.949Z,-8.90
2022-12-15T02:06:02.994Z,-8.90
2022-12-15T02:07:03.025Z,-8.90
2022-12-15T02:08:03.018Z,-8.90
2022-12-15T02:09:02.925Z,-8.90
2022-12-15T02:10:02.975Z,-8.90
2022-12-15T02:11:02.968Z,-8.90
2022-12-15T02:12:02.832Z,-8.90
2022-12-15T02:13:02.994Z,-8.90
2022-12-15T02:14:03.264Z,-8.90
2022-12-15T02:15:03.173Z,-8.90
2022-12-15T02:16:03.420Z,-8.80
2022-12-15T02:17:03.276Z,-8.90
2022-12-15T02:18:03.265Z,-8.80
2022-12-15T02:19:03.426Z,-8.80
2022-12-15T02:20:03.221Z,-8.80
2022-12-15T02:21:03.283Z,-8.80
2022-12-15T02:22:03.240Z,-8.80
2022-12-15T02:23:03.424Z,-8.80
2022-12-15T02:24:04.047Z,-8.80
2022-12-15T02:25:03.449Z,-8.80
2022-12-15T02:26:03.453Z,-8.80
2022-12-15T02:27:03.555Z,-8.80
2022-12-15T02:28:03.731Z,-8.80
2022-12-15T02:29:03.585Z,-8.80
2022-12-15T02:30:03.471Z,-8.80
2022-12-15T02:31:03.628Z,-8.80
2022-12-15T02:32:02.862Z,-8.80
2022-12-15T02:33:02.754Z,-8.80
2022-12-15T02:34:02.755Z,-8.80
2022-12-15T02:35:02.612Z,-8.80
2022-12-15T02:36:03.591Z,-8.80
2022-12-15T02:37:03.648Z,-8.80
2022-12-15T02:38:03.609Z,-8.80
2022-12-15T02:39:03.512Z,-8.80
2022-12-15T02:40:03.586Z,-8.80
2022-12-15T02:41:02.621Z,-8.80
2022-12-15T02:42:03.640Z,-8.80
2022-12-15T02:43:03.800Z,-8.80
2022-12-15T02:44:03.512Z,-8.80
2022-12-15T02:45:03.465Z,-8.80
2022-12-15T02:46:03.666Z,-8.80
2022-12-15T02:47:03.370Z,-8.80
2022-12-15T02:48:03.325Z,-8.80
2022-12-15T02:49:03.628Z,-8.80
2022-12-15T02:50:03.464Z,-8.80
2022-12-15T02:51:03.531Z,-8.90
2022-12-15T02:52:03.641Z,-8.90
2022-12-15T02:53:03.615Z,-8.90
2022-12-15T02:54:03.486Z,-8.90
2022-12-15T02:55:03.677Z,-8.90
2022-12-15T02:56:03.416Z,-8.90
2022-12-15T02:57:03.465Z,-8.90
2022-12-15T02:58:03.669Z,-8.90
2022-12-15T02:59:03.495Z,-8.90
2022-12-15T03:00:03.494Z,-8.90
2022-12-15T03:01:03.658Z,-8.90
2022-12-15T03:02:03.731Z,-9.00
2022-12-15T03:03:03.681Z,-9.00
2022-12-15T03:04:03.492Z,-9.00
2022-12-15T03:05:02.721Z,-9.00
2022-12-15T03:06:02.684Z,-9.00
2022-12-15T03:07:02.769Z,-9.00
2022-12-15T03:08:02.773Z,-9.00
2022-12-15T03:09:02.693Z,-9.00
2022-12-15T03:10:02.753Z,-9.00
2022-12-15T03:11:02.638Z,-9.00
2022-12-15T03:12:02.782Z,-9.00
2022-12-15T03:13:02.762Z,-9.00
2022-12-15T03:14:02.612Z,-9.00
2022-12-15T03:15:02.609Z,-9.00
2022-12-15T03:16:03.762Z,-9.00
2022-12-15T03:17:02.648Z,-9.00
2022-12-15T03:18:02.786Z,-9.00
2022-12-15T03:19:02.745Z,-9.00
2022-12-15T03:20:02.640Z,-9.00
2022-12-15T03:21:03.584Z,-9.00
2022-12-15T03:22:03.753Z,-8.90
2022-12-15T03:23:02.646Z,-8.90
2022-12-15T03:24:03.567Z,-9.00
2022-12-15T03:25:03.628Z,-8.90
2022-12-15T03:26:02.746Z,-8.90
2022-12-15T03:27:02.739Z,-8.90
2022-12-15T03:28:02.743Z,-8.90
2022-12-15T03:29:02.911Z,-8.90
2022-12-15T03:30:02.791Z,-9.00
2022-12-15T03:31:02.769Z,-8.90
2022-12-15T03:32:02.794Z,-8.90
2022-12-15T03:33:02.736Z,-9.00
2022-12-15T03:34:02.764Z,-9.00
2022-12-15T03:35:02.867Z,-9.00
2022-12-15T03:36:02.781Z,-9.00
2022-12-15T03:37:02.740Z,-9.00
2022-12-15T03:38:02.844Z,-9.00
2022-12-15T03:39:02.824Z,-9.10
2022-12-15T03:40:02.961Z,-9.10
2022-12-15T03:41:02.959Z,-9.10
2022-12-15T03:42:02.916Z,-9.10
2022-12-15T03:43:02.853Z,-9.10
2022-12-15T03:44:02.935Z,-9.10
2022-12-15T03:45:02.871Z,-9.10
2022-12-15T03:46:02.981Z,-9.10
2022-12-15T03:47:03.440Z,-9.10
2022-12-15T03:48:02.951Z,-9.10
2022-12-15T03:49:02.816Z,-9.20
2022-12-15T03:50:02.864Z,-9.20
2022-12-15T03:51:03.052Z,-9.20
2022-12-15T03:52:02.906Z,-9.20
2022-12-15T03:53:03.035Z,-9.20
2022-12-15T03:54:02.992Z,-9.20
2022-12-15T03:55:03.922Z,-9.20
2022-12-15T03:57:03.210Z,-9.30
2022-12-15T03:58:03.200Z,-9.30
2022-12-15T03:59:03.359Z,-9.30
2022-12-15T04:00:03.259Z,-9.30
2022-12-15T04:01:03.362Z,-9.30
2022-12-15T04:02:03.626Z,-9.30
2022-12-15T04:03:03.567Z,-9.30
2022-12-15T04:04:03.578Z,-9.30
2022-12-15T04:05:03.572Z,-9.30
2022-12-15T04:06:03.448Z,-9.40
2022-12-15T04:07:03.386Z,-9.40
2022-12-15T04:08:03.467Z,-9.40
2022-12-15T04:09:03.455Z,-9.40
2022-12-15T04:10:03.375Z,-9.40
2022-12-15T04:11:03.127Z,-9.40
2022-12-15T04:12:03.152Z,-9.50
2022-12-15T04:13:03.013Z,-9.50
2022-12-15T04:14:03.096Z,-9.50
2022-12-15T04:15:03.031Z,-9.50
2022-12-15T04:16:03.293Z,-9.60
2022-12-15T04:17:03.498Z,-9.60
2022-12-15T04:18:03.505Z,-9.60
2022-12-15T04:19:03.513Z,-9.60
2022-12-15T04:20:03.623Z,-9.70
2022-12-15T04:21:03.511Z,-9.70
2022-12-15T04:22:03.534Z,-9.70
2022-12-15T04:23:03.725Z,-9.70
2022-12-15T04:24:03.633Z,-9.70
2022-12-15T04:25:03.478Z,-9.70
2022-12-15T04:26:03.793Z,-9.70
2022-12-15T04:27:02.778Z,-9.70
2022-12-15T04:28:02.890Z,-9.70
2022-12-15T04:29:02.959Z,-9.70
2022-12-15T04:30:02.949Z,-9.70
2022-12-15T04:31:02.948Z,-9.80
2022-12-15T04:32:02.997Z,-9.80
2022-12-15T04:33:02.946Z,-9.80
2022-12-15T04:34:03.033Z,-9.80
2022-12-15T04:35:02.889Z,-9.80
2022-12-15T04:36:02.865Z,-9.80
2022-12-15T04:37:02.867Z,-9.80
2022-12-15T04:38:02.869Z,-9.80
2022-12-15T04:39:03.003Z,-9.80
2022-12-15T04:40:02.962Z,-9.80
2022-12-15T04:41:03.000Z,-9.80
2022-12-15T04:42:02.895Z,-9.80
2022-12-15T04:43:02.784Z,-9.80
2022-12-15T04:44:02.934Z,-9.80
2022-12-15T04:45:03.037Z,-9.80
2022-12-15T04:46:03.155Z,-9.80
2022-12-15T04:47:03.240Z,-9.80
2022-12-15T04:48:03.230Z,-9.80
2022-12-15T04:49:03.141Z,-9.80
2022-12-15T04:50:03.184Z,-9.70
2022-12-15T04:51:03.097Z,-9.70
2022-12-15T04:52:03.176Z,-9.70
2022-12-15T04:53:03.207Z,-9.70
2022-12-15T04:54:03.126Z,-9.70
2022-12-15T04:55:03.157Z,-9.70
2022-12-15T04:56:03.248Z,-9.70
2022-12-15T04:57:03.122Z,-9.80
2022-12-15T04:59:03.456Z,-9.80
2022-12-15T05:00:03.389Z,-9.80
2022-12-15T05:01:03.474Z,-9.80
2022-12-15T05:03:02.990Z,-9.80
2022-12-15T05:04:02.851Z,-9.80
2022-12-15T05:05:02.926Z,-9.80
2022-12-15T05:06:02.976Z,-9.80
2022-12-15T05:07:02.884Z,-9.80
2022-12-15T05:08:03.022Z,-9.80
2022-12-15T05:09:02.943Z,-9.80
2022-12-15T05:10:03.349Z,-9.80
2022-12-15T05:11:02.827Z,-9.80
2022-12-15T05:12:02.920Z,-9.80
2022-12-15T05:13:02.829Z,-9.80
2022-12-15T05:14:02.751Z,-9.80
2022-12-15T05:15:02.990Z,-9.80
2022-12-15T05:16:02.837Z,-9.80
2022-12-15T05:17:02.902Z,-9.80
2022-12-15T05:18:03.062Z,-9.90
2022-12-15T05:19:03.126Z,-9.90
2022-12-15T05:20:03.020Z,-9.90
2022-12-15T05:21:03.133Z,-9.90
2022-12-15T05:22:03.145Z,-9.90
2022-12-15T05:23:03.191Z,-9.90
2022-12-15T05:24:03.198Z,-9.90
2022-12-15T05:25:03.449Z,-9.80
2022-12-15T05:26:03.269Z,-9.90
2022-12-15T05:27:03.371Z,-9.80
2022-12-15T05:28:03.510Z,-9.80
2022-12-15T05:29:03.442Z,-9.80
2022-12-15T05:30:03.733Z,-9.80
2022-12-15T05:31:02.712Z,-9.80
2022-12-15T05:32:03.593Z,-9.90
2022-12-15T05:33:03.926Z,-9.90
2022-12-15T05:34:05.372Z,-9.90
2022-12-15T05:35:02.816Z,-9.90
2022-12-15T05:36:02.817Z,-9.90
2022-12-15T05:37:02.876Z,-9.90
2022-12-15T05:38:02.814Z,-9.90
2022-12-15T05:39:02.986Z,-9.90
2022-12-15T05:40:03.097Z,-9.90
2022-12-15T05:41:03.179Z,-9.90
2022-12-15T05:42:03.398Z,-9.90
2022-12-15T05:43:03.297Z,-9.90
2022-12-15T05:44:03.403Z,-9.90
2022-12-15T05:45:02.719Z,-9.90
2022-12-15T05:46:02.635Z,-9.90
2022-12-15T05:47:03.562Z,-9.90
2022-12-15T05:48:03.517Z,-9.90
2022-12-15T05:49:02.796Z,-9.90
2022-12-15T05:50:02.817Z,-9.90
2022-12-15T05:51:02.743Z,-9.90
2022-12-15T05:52:02.672Z,-10.00
2022-12-15T05:53:02.707Z,-9.90
2022-12-15T05:54:02.711Z,-9.90
2022-12-15T05:55:02.664Z,-9.90
2022-12-15T05:56:03.565Z,-9.90
2022-12-15T05:57:03.701Z,-9.90
2022-12-15T05:58:03.555Z,-9.90
2022-12-15T05:59:02.655Z,-9.90
2022-12-15T06:00:03.718Z,-9.90
2022-12-15T06:01:02.825Z,-9.90
2022-12-15T06:02:02.934Z,-9.90
2022-12-15T06:03:02.874Z,-9.90
2022-12-15T06:04:03.000Z,-9.90
2022-12-15T06:05:02.927Z,-9.90
2022-12-15T06:06:03.147Z,-9.90
2022-12-15T06:07:03.147Z,-9.90
2022-12-15T06:08:02.982Z,-9.90
2022-12-15T06:09:03.032Z,-9.90
2022-12-15T06:10:03.023Z,-9.90
2022-12-15T06:11:03.156Z,-9.90
2022-12-15T06:12:03.039Z,-9.90
2022-12-15T06:13:02.935Z,-9.90
2022-12-15T06:14:03.040Z,-9.90
2022-12-15T06:15:03.094Z,-9.90
2022-12-15T06:16:03.001Z,-9.90
2022-12-15T06:17:03.040Z,-9.90
2022-12-15T06:18:03.255Z,-9.90
2022-12-15T06:19:03.331Z,-9.90
2022-12-15T06:20:03.288Z,-9.90
2022-12-15T06:21:03.524Z,-9.90
2022-12-15T06:22:03.267Z,-9.90
2022-12-15T06:23:03.252Z,-9.90
2022-12-15T06:24:03.216Z,-9.90
2022-12-15T06:25:03.324Z,-9.90
2022-12-15T06:26:03.412Z,-9.90
2022-12-15T06:27:03.363Z,-9.90
2022-12-15T06:28:03.521Z,-9.90
2022-12-15T06:29:03.464Z,-9.90
2022-12-15T06:30:03.635Z,-9.90
2022-12-15T06:31:03.605Z,-9.90
2022-12-15T06:32:03.572Z,-10.00
2022-12-15T06:33:02.708Z,-10.00
2022-12-15T06:34:03.559Z,-10.00
2022-12-15T06:35:03.489Z,-10.00
2022-12-15T06:36:03.767Z,-10.00
2022-12-15T06:37:02.694Z,-10.00
2022-12-15T06:38:03.532Z,-10.00
2022-12-15T06:39:03.700Z,-10.10
2022-12-15T06:40:02.875Z,-10.10
2022-12-15T06:41:02.882Z,-10.10
2022-12-15T06:42:02.883Z,-10.10
2022-12-15T06:43:02.830Z,-10.10
2022-12-15T06:44:02.749Z,-10.10
2022-12-15T06:45:02.754Z,-10.10
2022-12-15T06:46:02.736Z,-10.10
2022-12-15T06:47:02.657Z,-10.10
2022-12-15T06:48:02.689Z,-10.20
2022-12-15T06:49:02.707Z,-10.20
2022-12-15T06:50:02.745Z,-10.20
2022-12-15T06:51:02.635Z,-10.20
2022-12-15T06:52:02.726Z,-10.20
2022-12-15T06:53:03.609Z,-10.20
2022-12-15T06:54:03.866Z,-10.30
2022-12-15T06:55:02.678Z,-10.30
2022-12-15T06:56:03.674Z,-10.30
2022-12-15T06:57:03.648Z,-10.30
2022-12-15T06:58:02.745Z,-10.30
2022-12-15T06:59:03.688Z,-10.30
2022-12-15T07:00:03.583Z,-10.30
2022-12-15T07:01:02.692Z,-10.30
2022-12-15T07:02:03.634Z,-10.30
2022-12-15T07:03:03.846Z,-10.30
2022-12-15T07:04:03.747Z,-10.30
2022-12-15T07:05:03.528Z,-10.40
2022-12-15T07:06:03.760Z,-10.30
2022-12-15T07:07:03.512Z,-10.40
2022-12-15T07:08:03.367Z,-10.40
2022-12-15T07:09:03.482Z,-10.40
2022-12-15T07:10:03.490Z,-10.40
2022-12-15T07:11:03.312Z,-10.40
2022-12-15T07:12:03.397Z,-10.40
2022-12-15T07:13:03.276Z,-10.40
2022-12-15T07:14:03.373Z,-10.40
2022-12-15T07:15:03.616Z,-10.40
2022-12-15T07:16:03.385Z,-10.40
2022-12-15T07:17:03.347Z,-10.40
2022-12-15T07:18:03.399Z,-10.50
2022-12-15T07:19:03.211Z,-10.50
2022-12-15T07:20:02.621Z,-10.50
2022-12-15T07:21:03.548Z,-10.50
2022-12-15T07:22:03.465Z,-10.50
2022-12-15T07:23:03.324Z,-10.50
2022-12-15T07:25:02.851Z,-10.50
2022-12-15T07:26:06.621Z,-10.50
2022-12-15T07:27:02.845Z,-10.50
2022-12-15T07:28:02.869Z,-10.50
2022-12-15T07:29:02.792Z,-10.50
2022-12-15T07:30:02.588Z,-10.50
2022-12-15T07:31:03.930Z,-10.50
2022-12-15T07:32:02.707Z,-10.50
2022-12-15T07:33:03.537Z,-10.50
2022-12-15T07:34:03.776Z,-10.50
2022-12-15T07:35:02.594Z,-10.50
2022-12-15T07:36:02.584Z,-10.50
2022-12-15T07:37:03.200Z,-10.50
2022-12-15T07:38:03.263Z,-10.50
2022-12-15T07:39:02.796Z,-10.50
2022-12-15T07:40:02.708Z,-10.50
2022-12-15T07:41:02.789Z,-10.50
2022-12-15T07:42:02.628Z,-10.50
2022-12-15T07:43:03.919Z,-10.50
2022-12-15T07:44:02.687Z,-10.40
2022-12-15T07:45:02.741Z,-10.40
2022-12-15T07:46:02.883Z,-10.40
2022-12-15T07:47:03.239Z,-10.50
2022-12-15T07:48:03.241Z,-10.40
2022-12-15T07:49:03.403Z,-10.50
2022-12-15T07:50:03.365Z,-10.50
2022-12-15T07:51:08.725Z,-10.40
2022-12-15T07:52:03.589Z,-10.40
2022-12-15T07:53:03.464Z,-10.40
2022-12-15T07:54:03.402Z,-10.40
2022-12-15T07:55:03.598Z,-10.40
2022-12-15T07:56:07.742Z,-10.40
2022-12-15T07:57:03.349Z,-10.40
2022-12-15T07:58:03.203Z,-10.40
2022-12-15T07:59:03.137Z,-10.40
2022-12-15T08:00:03.058Z,-10.40
2022-12-15T08:01:03.107Z,-10.40
2022-12-15T08:02:03.221Z,-10.40
2022-12-15T08:03:03.067Z,-10.30
2022-12-15T08:04:02.979Z,-10.30
2022-12-15T08:05:02.941Z,-10.30
2022-12-15T08:06:04.230Z,-10.30
2022-12-15T08:07:02.883Z,-10.30
2022-12-15T08:08:02.732Z,-10.20
2022-12-15T08:09:02.846Z,-10.20
2022-12-15T08:10:02.728Z,-10.20
2022-12-15T08:11:02.725Z,-10.20
2022-12-15T08:12:02.817Z,-10.10
2022-12-15T08:13:02.794Z,-10.10
2022-12-15T08:14:04.274Z,-10.10
2022-12-15T08:15:02.629Z,-10.10
2022-12-15T08:16:03.783Z,-10.10
2022-12-15T08:17:03.682Z,-10.00
2022-12-15T08:18:02.664Z,-10.00
2022-12-15T08:19:03.656Z,-10.00
2022-12-15T08:20:08.057Z,-9.90
2022-12-15T08:21:03.445Z,-9.90
2022-12-15T08:22:03.776Z,-9.90
2022-12-15T08:23:03.514Z,-9.80
2022-12-15T08:24:03.408Z,-9.80
2022-12-15T08:25:03.559Z,-9.80
2022-12-15T08:26:03.520Z,-9.70
2022-12-15T08:27:03.562Z,-9.70
2022-12-15T08:28:03.639Z,-9.60
2022-12-15T08:29:17.776Z,-9.60
2022-12-15T08:30:03.507Z,-9.50
2022-12-15T08:31:03.495Z,-9.50
2022-12-15T08:32:02.750Z,-9.40
2022-12-15T08:33:02.685Z,-9.40
2022-12-15T08:34:02.682Z,-9.40
2022-12-15T08:35:03.538Z,-9.30
2022-12-15T08:36:03.633Z,-9.30
2022-12-15T08:37:03.607Z,-9.20
2022-12-15T08:38:05.549Z,-9.20
2022-12-15T08:39:03.435Z,-9.10
2022-12-15T08:40:03.512Z,-9.10
2022-12-15T08:41:03.336Z,-9.00
2022-12-15T08:42:03.225Z,-9.00
2022-12-15T08:43:03.265Z,-8.90
2022-12-15T08:44:03.204Z,-8.80
2022-12-15T08:45:03.132Z,-8.80
2022-12-15T08:46:03.453Z,-8.80
2022-12-15T08:47:03.165Z,-8.70
2022-12-15T08:48:03.140Z,-8.60
2022-12-15T08:49:03.337Z,-8.60
2022-12-15T08:50:03.177Z,-8.50
2022-12-15T08:51:03.310Z,-8.40
2022-12-15T08:52:03.340Z,-8.30
2022-12-15T08:53:29.399Z,-8.30
2022-12-15T08:54:02.965Z,-8.20
2022-12-15T08:55:02.986Z,-8.20
2022-12-15T08:56:02.896Z,-8.10
2022-12-15T08:57:02.926Z,-8.10
2022-12-15T08:58:02.903Z,-8.00
2022-12-15T08:59:02.996Z,-7.90
2022-12-15T09:00:03.003Z,-7.90
2022-12-15T09:01:02.949Z,-7.80
2022-12-15T09:02:02.842Z,-7.80
2022-12-15T09:03:02.770Z,-7.70
2022-12-15T09:04:02.862Z,-7.60
2022-12-15T09:05:02.833Z,-7.60
2022-12-15T09:06:02.962Z,-7.50
2022-12-15T09:07:02.891Z,-7.50
2022-12-15T09:08:06.495Z,-7.40
2022-12-15T09:09:02.973Z,-7.40
2022-12-15T09:10:03.141Z,-7.30
2022-12-15T09:11:03.001Z,-7.30
2022-12-15T09:12:02.853Z,-7.20
2022-12-15T09:13:03.017Z,-7.10
2022-12-15T09:14:02.893Z,-7.10
2022-12-15T09:15:02.879Z,-7.10
2022-12-15T09:16:10.856Z,-7.00
2022-12-15T09:17:02.792Z,-7.00
2022-12-15T09:18:02.769Z,-6.90
2022-12-15T09:19:02.797Z,-6.90
2022-12-15T09:20:03.218Z,-6.90
2022-12-15T09:21:03.100Z,-6.80
2022-12-15T09:22:03.162Z,-6.80
2022-12-15T09:23:03.051Z,-6.80
2022-12-15T09:24:03.084Z,-6.80
2022-12-15T09:25:02.949Z,-6.70
2022-12-15T09:26:02.916Z,-6.70
2022-12-15T09:27:02.794Z,-6.70
2022-12-15T09:28:02.753Z,-6.60
2022-12-15T09:29:02.688Z,-6.60
2022-12-15T09:30:02.669Z,-6.60
2022-12-15T09:31:03.815Z,-6.50
2022-12-15T09:32:02.642Z,-6.50
2022-12-15T09:33:03.631Z,-6.40
2022-12-15T09:34:02.738Z,-6.40
2022-12-15T09:35:02.837Z,-6.40
2022-12-15T09:36:02.640Z,-6.30
2022-12-15T09:37:03.583Z,-6.30
2022-12-15T09:38:02.817Z,-6.30
2022-12-15T09:39:02.738Z,-6.20
2022-12-15T09:40:02.739Z,-6.20
2022-12-15T09:41:02.752Z,-6.10
2022-12-15T09:42:02.757Z,-6.10
2022-12-15T09:43:32.690Z,-6.00
2022-12-15T09:44:03.008Z,-6.00
2022-12-15T09:45:02.914Z,-5.90
2022-12-15T09:46:02.847Z,-5.90
2022-12-15T09:47:02.785Z,-5.90
2022-12-15T09:48:02.689Z,-5.90
2022-12-15T09:49:03.651Z,-5.80
2022-12-15T09:50:02.653Z,-5.80
2022-12-15T09:51:03.531Z,-5.80
2022-12-15T09:52:08.984Z,-5.70
2022-12-15T09:53:02.658Z,-5.70
2022-12-15T09:54:03.804Z,-5.70
2022-12-15T09:55:02.741Z,-5.70
2022-12-15T09:56:02.689Z,-5.70
2022-12-15T09:57:03.647Z,-5.70
2022-12-15T09:58:07.572Z,-5.70
2022-12-15T09:59:02.600Z,-5.70
2022-12-15T10:00:02.635Z,-5.60
2022-12-15T10:01:02.730Z,-5.60
2022-12-15T10:02:03.678Z,-5.60
2022-12-15T10:03:03.740Z,-5.60
2022-12-15T10:04:03.742Z,-5.60
2022-12-15T10:05:03.470Z,-5.50
2022-12-15T10:06:17.541Z,-5.50
2022-12-15T10:07:03.570Z,-5.50
2022-12-15T10:08:03.547Z,-5.50
2022-12-15T10:09:03.410Z,-5.50
2022-12-15T10:10:03.505Z,-5.40
2022-12-15T10:11:03.569Z,-5.40
2022-12-15T10:12:03.584Z,-5.40
2022-12-15T10:13:03.783Z,-5.40
2022-12-15T10:14:02.688Z,-5.30
2022-12-15T10:15:02.724Z,-5.30
2022-12-15T10:16:02.753Z,-5.30
2022-12-15T10:17:02.770Z,-5.30
2022-12-15T10:18:02.833Z,-5.30
2022-12-15T10:19:02.836Z,-5.30
2022-12-15T10:20:02.782Z,-5.30
2022-12-15T10:21:02.856Z,-5.30
2022-12-15T10:22:02.686Z,-5.20
2022-12-15T10:23:02.762Z,-5.20
2022-12-15T10:24:02.841Z,-5.20
2022-12-15T10:25:10.949Z,-5.20
2022-12-15T10:26:02.696Z,-5.20
2022-12-15T10:27:03.506Z,-5.20
2022-12-15T10:28:03.578Z,-5.20
2022-12-15T10:29:02.658Z,-5.10
2022-12-15T10:30:02.811Z,-5.10
2022-12-15T10:31:02.719Z,-5.00
2022-12-15T10:32:03.626Z,-5.00
2022-12-15T10:33:02.665Z,-5.00
2022-12-15T10:34:03.709Z,-5.00
2022-12-15T10:35:02.655Z,-4.90
2022-12-15T10:36:03.510Z,-4.90
2022-12-15T10:37:03.592Z,-4.80
2022-12-15T10:38:02.636Z,-4.80
2022-12-15T10:39:03.491Z,-4.80
2022-12-15T10:40:03.643Z,-4.80
2022-12-15T10:41:03.467Z,-4.70
2022-12-15T10:42:03.506Z,-4.70
2022-12-15T10:43:03.662Z,-4.70
2022-12-15T10:44:03.592Z,-4.60
2022-12-15T10:45:02.628Z,-4.60
2022-12-15T10:46:03.635Z,-4.60
2022-12-15T10:47:02.700Z,-4.60
2022-12-15T10:48:03.615Z,-4.50
2022-12-15T10:49:03.650Z,-4.50
2022-12-15T10:50:03.572Z,-4.50
2022-12-15T10:51:03.411Z,-4.50
2022-12-15T10:52:03.846Z,-4.40
2022-12-15T10:53:02.696Z,-4.40
2022-12-15T10:54:02.651Z,-4.40
2022-12-15T10:55:02.665Z,-4.40
2022-12-15T10:56:03.622Z,-4.40
2022-12-15T10:57:03.512Z,-4.30
2022-12-15T10:58:03.595Z,-4.30
2022-12-15T10:59:03.640Z,-4.30
2022-12-15T11:00:03.411Z,-4.30
2022-12-15T11:01:03.573Z,-4.20
2022-12-15T11:02:03.508Z,-4.20
2022-12-15T11:03:03.575Z,-4.20
2022-12-15T11:04:03.700Z,-4.20
2022-12-15T11:05:03.532Z,-4.20
2022-12-15T11:06:03.390Z,-4.20
2022-12-15T11:07:03.450Z,-4.20
2022-12-15T11:08:05.692Z,-4.20
2022-12-15T11:09:03.504Z,-4.20
2022-12-15T11:10:03.424Z,-4.10
2022-12-15T11:11:07.641Z,-4.10
2022-12-15T11:12:03.462Z,-4.10
2022-12-15T11:13:03.531Z,-4.10
2022-12-15T11:14:02.738Z,-4.10
2022-12-15T11:15:03.577Z,-4.10
2022-12-15T11:16:03.738Z,-4.00
2022-12-15T11:17:03.532Z,-4.00
2022-12-15T11:18:03.553Z,-4.00
2022-12-15T11:19:03.416Z,-3.90
2022-12-15T11:20:03.709Z,-4.00
2022-12-15T11:21:03.463Z,-3.90
2022-12-15T11:22:03.569Z,-3.90
2022-12-15T11:23:03.305Z,-3.90
2022-12-15T11:24:03.446Z,-3.80
2022-12-15T11:25:03.548Z,-3.80
2022-12-15T11:26:07.106Z,-3.80
2022-12-15T11:27:03.212Z,-3.70
2022-12-15T11:28:03.237Z,-3.70
2022-12-15T11:29:03.195Z,-3.70
2022-12-15T11:30:03.266Z,-3.70
2022-12-15T11:31:03.200Z,-3.60
2022-12-15T11:32:06.896Z,-3.60
2022-12-15T11:33:03.010Z,-3.60
2022-12-15T11:34:03.099Z,-3.60
2022-12-15T11:35:03.032Z,-3.50
2022-12-15T11:36:03.032Z,-3.50
2022-12-15T11:37:03.156Z,-3.50
2022-12-15T11:38:02.974Z,-3.50
2022-12-15T11:39:03.108Z,-3.50
2022-12-15T11:40:03.021Z,-3.40
2022-12-15T11:41:02.926Z,-3.40
2022-12-15T11:42:03.038Z,-3.40
2022-12-15T11:43:02.946Z,-3.40
2022-12-15T11:44:06.408Z,-3.40
2022-12-15T11:45:02.833Z,-3.40
2022-12-15T11:46:02.984Z,-3.30
2022-12-15T11:47:02.832Z,-3.30
2022-12-15T11:48:02.938Z,-3.30
2022-12-15T11:49:02.948Z,-3.30
2022-12-15T11:50:02.871Z,-3.30
2022-12-15T11:51:02.958Z,-3.30
2022-12-15T11:52:03.006Z,-3.30
2022-12-15T11:53:02.956Z,-3.30
2022-12-15T11:54:02.886Z,-3.30
2022-12-15T11:55:02.856Z,-3.30
2022-12-15T11:56:02.763Z,-3.30
2022-12-15T11:57:02.832Z,-3.30
2022-12-15T11:58:02.838Z,-3.30
2022-12-15T11:59:02.971Z,-3.30
2022-12-15T12:00:03.184Z,-3.30
2022-12-15T12:01:02.979Z,-3.30
2022-12-15T12:02:03.619Z,-3.30
2022-12-15T12:03:03.003Z,-3.30
2022-12-15T12:04:03.003Z,-3.30
2022-12-15T12:05:03.051Z,-3.30
2022-12-15T12:06:03.021Z,-3.30
2022-12-15T12:07:03.153Z,-3.30
2022-12-15T12:08:02.886Z,-3.30
2022-12-15T12:09:03.107Z,-3.30
2022-12-15T12:10:02.944Z,-3.20
2022-12-15T12:11:02.896Z,-3.20
2022-12-15T12:12:03.215Z,-3.20
2022-12-15T12:13:03.173Z,-3.20
2022-12-15T12:14:08.061Z,-3.20
2022-12-15T12:15:03.437Z,-3.10
2022-12-15T12:16:03.681Z,-3.10
2022-12-15T12:17:03.560Z,-3.10
2022-12-15T12:18:02.583Z,-3.00
2022-12-15T12:19:03.670Z,-3.00
2022-12-15T12:20:06.395Z,-3.00
2022-12-15T12:21:02.715Z,-3.00
2022-12-15T12:22:02.678Z,-3.00
2022-12-15T12:23:03.465Z,-2.90
2022-12-15T12:24:03.502Z,-2.90
2022-12-15T12:25:03.174Z,-2.90
2022-12-15T12:26:03.603Z,-2.90
2022-12-15T12:27:02.592Z,-2.90
2022-12-15T12:28:02.659Z,-2.90
2022-12-15T12:29:03.530Z,-2.90
2022-12-15T12:30:03.439Z,-2.80
2022-12-15T12:31:03.477Z,-2.80
2022-12-15T12:32:05.033Z,-2.80
2022-12-15T12:33:03.460Z,-2.80
2022-12-15T12:34:03.383Z,-2.80
2022-12-15T12:35:30.015Z,-2.80
2022-12-15T12:36:03.400Z,-2.80
2022-12-15T12:37:03.423Z,-2.80
2022-12-15T12:38:04.219Z,-2.80
2022-12-15T12:39:03.108Z,-2.70
2022-12-15T12:40:03.233Z,-2.70
2022-12-15T12:41:03.253Z,-2.70
2022-12-15T12:42:03.208Z,-2.70
2022-12-15T12:43:04.414Z,-2.70
2022-12-15T12:44:03.282Z,-2.70
2022-12-15T12:45:03.115Z,-2.60
2022-12-15T12:46:03.122Z,-2.60
2022-12-15T12:47:03.004Z,-2.60
2022-12-15T12:48:03.058Z,-2.60
2022-12-15T12:49:03.101Z,-2.60
2022-12-15T12:50:02.974Z,-2.50
2022-12-15T12:51:03.004Z,-2.50
2022-12-15T12:52:03.005Z,-2.50
2022-12-15T12:53:03.064Z,-2.50
2022-12-15T12:54:03.140Z,-2.50